sensor_id;sensor_type;location;lat;lon;timestamp;temperature;humidity
10968;DHT22;5536;49.602;10.980;2023-11-21T00:00:15;8.10;99.90
10968;DHT22;5536;49.602;10.980;2023-11-21T00:02:43;8.20;99.90
10968;DHT22;5536;49.602;10.980;2023-11-21T00:05:11;8.20;99.90
10968;DHT22;5536;49.602;10.980;2023-11-21T00:07:39;8.10;99.90
10968;DHT22;5536;49.602;10.980;2023-11-21T00:10:09;8.10;99.90
10968;DHT22;5536;49.602;10.980;2023-11-21T00:12:37;8.10;99.90
10968;DHT22;5536;49.602;10.980;2023-11-21T00:15:08;8.10;99.90
10968;DHT22;5536;49.602;10.980;2023-11-21T00:17:36;8.10;99.90
10968;DHT22;5536;49.602;10.980;2023-11-21T00:20:04;8.00;99.90
10968;DHT22;5536;49.602;10.980;2023-11-21T00:22:32;8.00;99.90
10968;DHT22;5536;49.602;10.980;2023-11-21T00:24:59;8.00;99.90
10968;DHT22;5536;49.602;10.980;2023-11-21T00:27:28;8.00;99.90
10968;DHT22;5536;49.602;10.980;2023-11-21T00:29:55;8.00;99.90
10968;DHT22;5536;49.602;10.980;2023-11-21T00:32:22;8.00;99.90
10968;DHT22;5536;49.602;10.980;2023-11-21T00:34:49;8.10;99.90
10968;DHT22;5536;49.602;10.980;2023-11-21T00:37:16;8.10;99.90
10968;DHT22;5536;49.602;10.980;2023-11-21T00:39:43;8.10;99.90
10968;DHT22;5536;49.602;10.980;2023-11-21T00:42:10;8.10;99.90
10968;DHT22;5536;49.602;10.980;2023-11-21T00:44:39;8.10;99.90
10968;DHT22;5536;49.602;10.980;2023-11-21T00:47:06;8.10;99.90
10968;DHT22;5536;49.602;10.980;2023-11-21T00:49:33;8.10;99.90
10968;DHT22;5536;49.602;10.980;2023-11-21T00:52:00;8.10;99.90
10968;DHT22;5536;49.602;10.980;2023-11-21T00:54:28;8.00;99.90
10968;DHT22;5536;49.602;10.980;2023-11-21T00:56:55;8.00;99.90
10968;DHT22;5536;49.602;10.980;2023-11-21T00:59:22;8.00;99.90
10968;DHT22;5536;49.602;10.980;2023-11-21T01:01:51;7.90;99.90
10968;DHT22;5536;49.602;10.980;2023-11-21T01:04:19;7.90;99.90
10968;DHT22;5536;49.602;10.980;2023-11-21T01:06:46;7.90;99.90
10968;DHT22;5536;49.602;10.980;2023-11-21T01:09:14;7.90;99.90
10968;DHT22;5536;49.602;10.980;2023-11-21T01:11:42;7.90;99.90
10968;DHT22;5536;49.602;10.980;2023-11-21T01:14:09;8.00;99.90
10968;DHT22;5536;49.602;10.980;2023-11-21T01:16:36;8.00;99.90
10968;DHT22;5536;49.602;10.980;2023-11-21T01:19:05;8.00;99.90
10968;DHT22;5536;49.602;10.980;2023-11-21T01:21:32;8.00;99.90
10968;DHT22;5536;49.602;10.980;2023-11-21T01:23:59;8.00;99.90
10968;DHT22;5536;49.602;10.980;2023-11-21T01:26:26;8.00;99.90
10968;DHT22;5536;49.602;10.980;2023-11-21T01:28:53;8.00;99.90
10968;DHT22;5536;49.602;10.980;2023-11-21T01:31:20;7.90;99.90
10968;DHT22;5536;49.602;10.980;2023-11-21T01:33:47;7.90;99.90
10968;DHT22;5536;49.602;10.980;2023-11-21T01:36:15;7.90;99.90
10968;DHT22;5536;49.602;10.980;2023-11-21T01:38:42;7.90;99.90
10968;DHT22;5536;49.602;10.980;2023-11-21T01:41:09;7.90;99.90
10968;DHT22;5536;49.602;10.980;2023-11-21T01:43:38;7.80;99.90
10968;DHT22;5536;49.602;10.980;2023-11-21T01:46:06;7.80;99.90
10968;DHT22;5536;49.602;10.980;2023-11-21T01:48:33;7.80;99.90
10968;DHT22;5536;49.602;10.980;2023-11-21T01:51:00;7.70;99.90
10968;DHT22;5536;49.602;10.980;2023-11-21T01:53:29;7.80;99.90
10968;DHT22;5536;49.602;10.980;2023-11-21T01:55:56;7.80;99.90
10968;DHT22;5536;49.602;10.980;2023-11-21T01:58:23;7.80;99.90
10968;DHT22;5536;49.602;10.980;2023-11-21T02:00:50;7.70;99.90
10968;DHT22;5536;49.602;10.980;2023-11-21T02:03:20;7.80;99.90
10968;DHT22;5536;49.602;10.980;2023-11-21T02:05:47;7.80;99.90
10968;DHT22;5536;49.602;10.980;2023-11-21T02:08:14;7.70;99.90
10968;DHT22;5536;49.602;10.980;2023-11-21T02:10:42;7.70;99.90
10968;DHT22;5536;49.602;10.980;2023-11-21T02:13:09;7.70;99.90
10968;DHT22;5536;49.602;10.980;2023-11-21T02:15:36;7.60;99.90
10968;DHT22;5536;49.602;10.980;2023-11-21T02:18:05;7.70;99.90
10968;DHT22;5536;49.602;10.980;2023-11-21T02:20:35;7.70;99.90
10968;DHT22;5536;49.602;10.980;2023-11-21T02:23:09;7.80;99.90
10968;DHT22;5536;49.602;10.980;2023-11-21T02:25:36;7.70;99.90
10968;DHT22;5536;49.602;10.980;2023-11-21T02:28:04;7.80;99.90
10968;DHT22;5536;49.602;10.980;2023-11-21T02:30:32;7.80;99.90
10968;DHT22;5536;49.602;10.980;2023-11-21T02:32:59;7.80;99.90
10968;DHT22;5536;49.602;10.980;2023-11-21T02:35:26;7.70;99.90
10968;DHT22;5536;49.602;10.980;2023-11-21T02:37:53;7.70;99.90
10968;DHT22;5536;49.602;10.980;2023-11-21T02:40:22;7.70;99.90
10968;DHT22;5536;49.602;10.980;2023-11-21T02:42:51;7.80;99.90
10968;DHT22;5536;49.602;10.980;2023-11-21T02:45:18;7.80;99.90
10968;DHT22;5536;49.602;10.980;2023-11-21T02:47:49;7.80;99.90
10968;DHT22;5536;49.602;10.980;2023-11-21T02:50:18;7.70;99.90
10968;DHT22;5536;49.602;10.980;2023-11-21T02:52:45;7.70;99.90
10968;DHT22;5536;49.602;10.980;2023-11-21T02:55:12;7.70;99.90
10968;DHT22;5536;49.602;10.980;2023-11-21T02:57:41;7.70;99.90
10968;DHT22;5536;49.602;10.980;2023-11-21T03:00:09;7.70;99.90
10968;DHT22;5536;49.602;10.980;2023-11-21T03:02:38;7.70;99.90
10968;DHT22;5536;49.602;10.980;2023-11-21T03:05:06;7.70;99.90
10968;DHT22;5536;49.602;10.980;2023-11-21T03:07:34;7.80;99.90
10968;DHT22;5536;49.602;10.980;2023-11-21T03:10:01;7.70;99.90
10968;DHT22;5536;49.602;10.980;2023-11-21T03:12:29;7.80;99.90
10968;DHT22;5536;49.602;10.980;2023-11-21T03:14:58;7.80;99.90
10968;DHT22;5536;49.602;10.980;2023-11-21T03:17:25;7.80;99.90
10968;DHT22;5536;49.602;10.980;2023-11-21T03:19:52;7.80;99.90
10968;DHT22;5536;49.602;10.980;2023-11-21T03:22:20;7.70;99.90
10968;DHT22;5536;49.602;10.980;2023-11-21T03:24:47;7.80;99.90
10968;DHT22;5536;49.602;10.980;2023-11-21T03:27:14;7.70;99.90
10968;DHT22;5536;49.602;10.980;2023-11-21T03:29:40;7.70;99.90
10968;DHT22;5536;49.602;10.980;2023-11-21T03:32:09;7.80;99.90
10968;DHT22;5536;49.602;10.980;2023-11-21T03:34:53;7.70;99.90
10968;DHT22;5536;49.602;10.980;2023-11-21T03:37:21;7.70;99.90
10968;DHT22;5536;49.602;10.980;2023-11-21T03:39:47;7.70;99.90
10968;DHT22;5536;49.602;10.980;2023-11-21T03:42:14;7.80;99.90
10968;DHT22;5536;49.602;10.980;2023-11-21T03:44:41;7.70;99.90
10968;DHT22;5536;49.602;10.980;2023-11-21T03:47:10;7.80;99.90
10968;DHT22;5536;49.602;10.980;2023-11-21T03:49:37;7.90;99.90
10968;DHT22;5536;49.602;10.980;2023-11-21T03:52:05;7.90;99.90
10968;DHT22;5536;49.602;10.980;2023-11-21T03:54:33;7.90;99.90
10968;DHT22;5536;49.602;10.980;2023-11-21T03:57:01;7.80;99.90
10968;DHT22;5536;49.602;10.980;2023-11-21T03:59:28;7.80;99.90
10968;DHT22;5536;49.602;10.980;2023-11-21T04:01:55;7.80;99.90
10968;DHT22;5536;49.602;10.980;2023-11-21T04:04:24;7.80;99.90
10968;DHT22;5536;49.602;10.980;2023-11-21T04:06:51;7.80;99.90
10968;DHT22;5536;49.602;10.980;2023-11-21T04:09:19;7.80;99.90
10968;DHT22;5536;49.602;10.980;2023-11-21T04:11:46;7.80;99.90
10968;DHT22;5536;49.602;10.980;2023-11-21T04:14:13;7.70;99.90
10968;DHT22;5536;49.602;10.980;2023-11-21T04:16:41;7.80;99.90
10968;DHT22;5536;49.602;10.980;2023-11-21T04:19:08;7.80;99.90
10968;DHT22;5536;49.602;10.980;2023-11-21T04:21:40;7.90;99.90
10968;DHT22;5536;49.602;10.980;2023-11-21T04:24:07;7.90;99.90
10968;DHT22;5536;49.602;10.980;2023-11-21T04:26:34;7.80;99.90
10968;DHT22;5536;49.602;10.980;2023-11-21T04:29:02;7.80;99.90
10968;DHT22;5536;49.602;10.980;2023-11-21T04:31:29;7.80;99.90
10968;DHT22;5536;49.602;10.980;2023-11-21T04:33:56;7.80;99.90
10968;DHT22;5536;49.602;10.980;2023-11-21T04:36:23;7.80;99.90
10968;DHT22;5536;49.602;10.980;2023-11-21T04:38:51;7.80;99.90
10968;DHT22;5536;49.602;10.980;2023-11-21T04:41:18;7.80;99.90
10968;DHT22;5536;49.602;10.980;2023-11-21T04:43:45;7.80;99.90
10968;DHT22;5536;49.602;10.980;2023-11-21T04:46:12;7.80;99.90
10968;DHT22;5536;49.602;10.980;2023-11-21T04:48:39;7.80;99.90
10968;DHT22;5536;49.602;10.980;2023-11-21T04:51:06;7.80;99.90
10968;DHT22;5536;49.602;10.980;2023-11-21T04:53:33;7.80;99.90
10968;DHT22;5536;49.602;10.980;2023-11-21T04:56:03;7.80;99.90
10968;DHT22;5536;49.602;10.980;2023-11-21T04:58:30;7.90;99.90
10968;DHT22;5536;49.602;10.980;2023-11-21T05:00:58;8.00;99.90
10968;DHT22;5536;49.602;10.980;2023-11-21T05:03:25;8.00;99.90
10968;DHT22;5536;49.602;10.980;2023-11-21T05:05:52;8.10;99.90
10968;DHT22;5536;49.602;10.980;2023-11-21T05:08:19;8.10;99.90
10968;DHT22;5536;49.602;10.980;2023-11-21T05:10:48;8.10;99.90
10968;DHT22;5536;49.602;10.980;2023-11-21T05:13:17;8.20;99.90
10968;DHT22;5536;49.602;10.980;2023-11-21T05:15:44;8.10;99.90
10968;DHT22;5536;49.602;10.980;2023-11-21T05:18:11;8.00;99.90
10968;DHT22;5536;49.602;10.980;2023-11-21T05:20:39;8.00;99.90
10968;DHT22;5536;49.602;10.980;2023-11-21T05:23:06;8.10;99.90
10968;DHT22;5536;49.602;10.980;2023-11-21T05:25:34;8.10;99.90
10968;DHT22;5536;49.602;10.980;2023-11-21T05:28:01;8.10;99.90
10968;DHT22;5536;49.602;10.980;2023-11-21T05:30:29;8.00;99.90
10968;DHT22;5536;49.602;10.980;2023-11-21T05:32:56;8.10;99.90
10968;DHT22;5536;49.602;10.980;2023-11-21T05:35:23;8.00;99.90
10968;DHT22;5536;49.602;10.980;2023-11-21T05:37:50;8.00;99.90
10968;DHT22;5536;49.602;10.980;2023-11-21T05:40:17;8.00;99.90
10968;DHT22;5536;49.602;10.980;2023-11-21T05:42:44;8.00;99.90
10968;DHT22;5536;49.602;10.980;2023-11-21T05:45:11;7.90;99.90
10968;DHT22;5536;49.602;10.980;2023-11-21T05:47:41;7.90;99.90
10968;DHT22;5536;49.602;10.980;2023-11-21T05:50:10;7.90;99.90
10968;DHT22;5536;49.602;10.980;2023-11-21T05:52:39;7.90;99.90
10968;DHT22;5536;49.602;10.980;2023-11-21T05:55:06;7.90;99.90
10968;DHT22;5536;49.602;10.980;2023-11-21T05:57:34;8.00;99.90
10968;DHT22;5536;49.602;10.980;2023-11-21T06:00:03;8.00;99.90
10968;DHT22;5536;49.602;10.980;2023-11-21T06:02:37;8.10;99.90
10968;DHT22;5536;49.602;10.980;2023-11-21T06:05:07;8.10;99.90
10968;DHT22;5536;49.602;10.980;2023-11-21T06:07:34;8.20;99.90
10968;DHT22;5536;49.602;10.980;2023-11-21T06:10:04;8.10;99.90
10968;DHT22;5536;49.602;10.980;2023-11-21T06:12:34;8.10;99.90
10968;DHT22;5536;49.602;10.980;2023-11-21T06:15:02;8.10;99.90
10968;DHT22;5536;49.602;10.980;2023-11-21T06:17:30;8.10;99.90
10968;DHT22;5536;49.602;10.980;2023-11-21T06:19:57;8.20;99.90
10968;DHT22;5536;49.602;10.980;2023-11-21T06:22:26;8.20;99.90
10968;DHT22;5536;49.602;10.980;2023-11-21T06:24:53;8.20;99.90
10968;DHT22;5536;49.602;10.980;2023-11-21T06:27:20;8.20;99.90
10968;DHT22;5536;49.602;10.980;2023-11-21T06:29:47;8.20;99.90
10968;DHT22;5536;49.602;10.980;2023-11-21T06:32:14;8.30;99.90
10968;DHT22;5536;49.602;10.980;2023-11-21T06:34:42;8.30;99.90
10968;DHT22;5536;49.602;10.980;2023-11-21T06:37:09;8.40;99.90
10968;DHT22;5536;49.602;10.980;2023-11-21T06:39:38;8.40;99.90
10968;DHT22;5536;49.602;10.980;2023-11-21T06:42:05;8.40;99.90
10968;DHT22;5536;49.602;10.980;2023-11-21T06:44:32;8.40;99.90
10968;DHT22;5536;49.602;10.980;2023-11-21T06:47:01;8.50;99.90
10968;DHT22;5536;49.602;10.980;2023-11-21T06:49:28;8.40;99.90
10968;DHT22;5536;49.602;10.980;2023-11-21T06:51:55;8.30;99.90
10968;DHT22;5536;49.602;10.980;2023-11-21T06:54:22;8.20;99.90
10968;DHT22;5536;49.602;10.980;2023-11-21T06:56:50;8.20;99.90
10968;DHT22;5536;49.602;10.980;2023-11-21T06:59:19;8.10;99.90
10968;DHT22;5536;49.602;10.980;2023-11-21T07:01:46;8.20;99.90
10968;DHT22;5536;49.602;10.980;2023-11-21T07:04:13;8.30;99.90
10968;DHT22;5536;49.602;10.980;2023-11-21T07:06:40;8.40;99.90
10968;DHT22;5536;49.602;10.980;2023-11-21T07:09:07;8.40;99.90
10968;DHT22;5536;49.602;10.980;2023-11-21T07:11:35;8.20;99.90
10968;DHT22;5536;49.602;10.980;2023-11-21T07:14:05;8.20;99.90
10968;DHT22;5536;49.602;10.980;2023-11-21T07:16:33;8.20;99.90
10968;DHT22;5536;49.602;10.980;2023-11-21T07:19:03;8.20;99.90
10968;DHT22;5536;49.602;10.980;2023-11-21T07:21:31;8.30;99.90
10968;DHT22;5536;49.602;10.980;2023-11-21T07:23:58;8.30;99.90
10968;DHT22;5536;49.602;10.980;2023-11-21T07:26:26;8.20;99.90
10968;DHT22;5536;49.602;10.980;2023-11-21T07:28:53;8.20;99.90
10968;DHT22;5536;49.602;10.980;2023-11-21T07:31:22;8.30;99.90
10968;DHT22;5536;49.602;10.980;2023-11-21T07:33:50;8.30;99.90
10968;DHT22;5536;49.602;10.980;2023-11-21T07:36:18;8.30;99.90
10968;DHT22;5536;49.602;10.980;2023-11-21T07:38:46;8.40;99.90
10968;DHT22;5536;49.602;10.980;2023-11-21T07:41:13;8.40;99.90
10968;DHT22;5536;49.602;10.980;2023-11-21T07:43:41;8.40;99.90
10968;DHT22;5536;49.602;10.980;2023-11-21T07:46:08;8.40;99.90
10968;DHT22;5536;49.602;10.980;2023-11-21T07:48:36;8.40;99.90
10968;DHT22;5536;49.602;10.980;2023-11-21T07:51:03;8.40;99.90
10968;DHT22;5536;49.602;10.980;2023-11-21T07:53:30;8.40;99.90
10968;DHT22;5536;49.602;10.980;2023-11-21T07:55:58;8.50;99.90
10968;DHT22;5536;49.602;10.980;2023-11-21T07:58:25;8.50;99.90
10968;DHT22;5536;49.602;10.980;2023-11-21T08:00:52;8.50;99.90
10968;DHT22;5536;49.602;10.980;2023-11-21T08:03:19;8.50;99.90
10968;DHT22;5536;49.602;10.980;2023-11-21T08:05:48;8.50;99.90
10968;DHT22;5536;49.602;10.980;2023-11-21T08:08:15;8.50;99.90
10968;DHT22;5536;49.602;10.980;2023-11-21T08:10:44;8.50;99.90
10968;DHT22;5536;49.602;10.980;2023-11-21T08:13:21;8.60;99.90
10968;DHT22;5536;49.602;10.980;2023-11-21T08:15:48;8.60;99.90
10968;DHT22;5536;49.602;10.980;2023-11-21T08:18:16;8.70;99.90
10968;DHT22;5536;49.602;10.980;2023-11-21T08:20:43;8.70;99.90
10968;DHT22;5536;49.602;10.980;2023-11-21T08:23:15;8.80;99.90
10968;DHT22;5536;49.602;10.980;2023-11-21T08:25:43;8.80;99.90
10968;DHT22;5536;49.602;10.980;2023-11-21T08:28:10;8.90;99.90
10968;DHT22;5536;49.602;10.980;2023-11-21T08:30:37;8.90;99.90
10968;DHT22;5536;49.602;10.980;2023-11-21T08:33:05;8.90;99.90
10968;DHT22;5536;49.602;10.980;2023-11-21T08:35:32;9.00;99.90
10968;DHT22;5536;49.602;10.980;2023-11-21T08:37:59;9.00;99.90
10968;DHT22;5536;49.602;10.980;2023-11-21T08:40:28;9.00;99.90
10968;DHT22;5536;49.602;10.980;2023-11-21T08:42:55;9.00;99.90
10968;DHT22;5536;49.602;10.980;2023-11-21T08:45:24;8.90;99.90
10968;DHT22;5536;49.602;10.980;2023-11-21T08:47:51;9.00;99.90
10968;DHT22;5536;49.602;10.980;2023-11-21T08:50:19;9.00;99.90
10968;DHT22;5536;49.602;10.980;2023-11-21T08:52:47;9.10;99.90
10968;DHT22;5536;49.602;10.980;2023-11-21T08:55:15;9.20;99.90
10968;DHT22;5536;49.602;10.980;2023-11-21T08:57:44;9.30;99.90
10968;DHT22;5536;49.602;10.980;2023-11-21T09:00:12;9.40;99.90
10968;DHT22;5536;49.602;10.980;2023-11-21T09:02:43;9.40;99.90
10968;DHT22;5536;49.602;10.980;2023-11-21T09:05:10;9.40;99.90
10968;DHT22;5536;49.602;10.980;2023-11-21T09:07:39;9.40;99.90
10968;DHT22;5536;49.602;10.980;2023-11-21T09:10:07;9.40;99.90
10968;DHT22;5536;49.602;10.980;2023-11-21T09:12:35;9.40;99.90
10968;DHT22;5536;49.602;10.980;2023-11-21T09:15:05;9.40;99.90
10968;DHT22;5536;49.602;10.980;2023-11-21T09:17:33;9.40;99.90
10968;DHT22;5536;49.602;10.980;2023-11-21T09:20:00;9.30;99.90
10968;DHT22;5536;49.602;10.980;2023-11-21T09:22:29;9.40;99.90
10968;DHT22;5536;49.602;10.980;2023-11-21T09:24:57;9.50;99.90
10968;DHT22;5536;49.602;10.980;2023-11-21T09:27:24;9.50;99.90
10968;DHT22;5536;49.602;10.980;2023-11-21T09:29:51;9.60;99.90
10968;DHT22;5536;49.602;10.980;2023-11-21T09:32:21;9.50;99.90
10968;DHT22;5536;49.602;10.980;2023-11-21T09:34:48;9.50;99.90
10968;DHT22;5536;49.602;10.980;2023-11-21T09:37:15;9.50;99.90
10968;DHT22;5536;49.602;10.980;2023-11-21T09:39:43;9.40;99.90
10968;DHT22;5536;49.602;10.980;2023-11-21T09:53:18;9.50;99.90
10968;DHT22;5536;49.602;10.980;2023-11-21T09:56:13;9.70;99.90
10968;DHT22;5536;49.602;10.980;2023-11-21T09:59:26;9.70;99.90
10968;DHT22;5536;49.602;10.980;2023-11-21T10:05:04;9.80;99.90
10968;DHT22;5536;49.602;10.980;2023-11-21T10:07:32;9.70;99.90
10968;DHT22;5536;49.602;10.980;2023-11-21T10:10:02;9.70;99.90
10968;DHT22;5536;49.602;10.980;2023-11-21T10:12:31;9.90;99.90
10968;DHT22;5536;49.602;10.980;2023-11-21T10:14:59;10.00;99.90
10968;DHT22;5536;49.602;10.980;2023-11-21T10:17:28;10.10;99.90
10968;DHT22;5536;49.602;10.980;2023-11-21T10:19:57;10.10;99.90
10968;DHT22;5536;49.602;10.980;2023-11-21T10:22:25;10.10;99.90
10968;DHT22;5536;49.602;10.980;2023-11-21T10:24:52;10.20;99.90
10968;DHT22;5536;49.602;10.980;2023-11-21T10:27:21;10.20;99.90
10968;DHT22;5536;49.602;10.980;2023-11-21T10:29:51;10.30;99.90
10968;DHT22;5536;49.602;10.980;2023-11-21T10:32:18;10.20;99.90
10968;DHT22;5536;49.602;10.980;2023-11-21T10:34:55;10.10;99.90
10968;DHT22;5536;49.602;10.980;2023-11-21T10:37:22;10.10;99.90
10968;DHT22;5536;49.602;10.980;2023-11-21T10:39:50;10.10;99.90
10968;DHT22;5536;49.602;10.980;2023-11-21T10:42:22;10.10;99.90
10968;DHT22;5536;49.602;10.980;2023-11-21T10:44:50;10.00;99.90
10968;DHT22;5536;49.602;10.980;2023-11-21T10:50:00;10.00;99.90
10968;DHT22;5536;49.602;10.980;2023-11-21T10:52:28;10.10;99.90
10968;DHT22;5536;49.602;10.980;2023-11-21T10:54:55;10.10;99.90
10968;DHT22;5536;49.602;10.980;2023-11-21T10:57:25;10.20;99.90
10968;DHT22;5536;49.602;10.980;2023-11-21T10:59:54;10.20;99.90
10968;DHT22;5536;49.602;10.980;2023-11-21T11:02:23;10.20;99.90
10968;DHT22;5536;49.602;10.980;2023-11-21T11:04:54;10.20;99.90
10968;DHT22;5536;49.602;10.980;2023-11-21T11:07:26;10.10;99.90
10968;DHT22;5536;49.602;10.980;2023-11-21T11:09:54;10.10;99.90
10968;DHT22;5536;49.602;10.980;2023-11-21T11:12:21;10.10;99.90
10968;DHT22;5536;49.602;10.980;2023-11-21T11:14:48;10.10;99.90
10968;DHT22;5536;49.602;10.980;2023-11-21T11:17:16;10.20;99.90
10968;DHT22;5536;49.602;10.980;2023-11-21T11:19:46;10.20;99.90
10968;DHT22;5536;49.602;10.980;2023-11-21T11:22:23;10.30;99.90
10968;DHT22;5536;49.602;10.980;2023-11-21T11:25:14;10.20;99.90
10968;DHT22;5536;49.602;10.980;2023-11-21T11:27:52;10.20;99.90
10968;DHT22;5536;49.602;10.980;2023-11-21T11:30:31;10.20;99.90
10968;DHT22;5536;49.602;10.980;2023-11-21T11:33:10;10.20;99.90
10968;DHT22;5536;49.602;10.980;2023-11-21T11:35:46;10.10;99.90
10968;DHT22;5536;49.602;10.980;2023-11-21T11:38:16;10.10;99.90
10968;DHT22;5536;49.602;10.980;2023-11-21T11:40:46;10.20;99.90
10968;DHT22;5536;49.602;10.980;2023-11-21T11:43:16;10.20;99.90
10968;DHT22;5536;49.602;10.980;2023-11-21T11:45:51;10.30;99.90
10968;DHT22;5536;49.602;10.980;2023-11-21T11:48:22;10.30;99.90
10968;DHT22;5536;49.602;10.980;2023-11-21T11:51:10;10.20;99.90
10968;DHT22;5536;49.602;10.980;2023-11-21T11:53:40;10.20;99.90
10968;DHT22;5536;49.602;10.980;2023-11-21T11:56:25;10.30;99.90
10968;DHT22;5536;49.602;10.980;2023-11-21T11:58:54;10.30;99.90
10968;DHT22;5536;49.602;10.980;2023-11-21T12:01:24;10.40;99.90
10968;DHT22;5536;49.602;10.980;2023-11-21T12:04:25;10.40;99.90
10968;DHT22;5536;49.602;10.980;2023-11-21T12:07:03;10.50;99.90
10968;DHT22;5536;49.602;10.980;2023-11-21T12:09:32;10.50;99.90
10968;DHT22;5536;49.602;10.980;2023-11-21T12:12:02;10.50;99.90
10968;DHT22;5536;49.602;10.980;2023-11-21T12:14:30;10.50;99.90
10968;DHT22;5536;49.602;10.980;2023-11-21T12:16:57;10.50;99.90
10968;DHT22;5536;49.602;10.980;2023-11-21T12:19:25;10.50;99.90
10968;DHT22;5536;49.602;10.980;2023-11-21T12:21:53;10.50;99.90
10968;DHT22;5536;49.602;10.980;2023-11-21T12:24:21;10.60;99.90
10968;DHT22;5536;49.602;10.980;2023-11-21T12:26:49;10.60;99.90
10968;DHT22;5536;49.602;10.980;2023-11-21T12:29:18;10.60;99.90
10968;DHT22;5536;49.602;10.980;2023-11-21T12:31:45;10.60;99.90
10968;DHT22;5536;49.602;10.980;2023-11-21T12:34:12;10.60;99.90
10968;DHT22;5536;49.602;10.980;2023-11-21T12:36:39;10.60;99.90
10968;DHT22;5536;49.602;10.980;2023-11-21T12:39:06;10.60;99.90
10968;DHT22;5536;49.602;10.980;2023-11-21T12:41:35;10.70;99.90
10968;DHT22;5536;49.602;10.980;2023-11-21T12:44:02;10.80;99.90
10968;DHT22;5536;49.602;10.980;2023-11-21T12:46:31;10.80;99.90
10968;DHT22;5536;49.602;10.980;2023-11-21T12:49:00;10.90;99.90
10968;DHT22;5536;49.602;10.980;2023-11-21T12:51:27;10.80;99.90
10968;DHT22;5536;49.602;10.980;2023-11-21T12:53:56;10.80;99.90
10968;DHT22;5536;49.602;10.980;2023-11-21T12:56:24;10.70;99.90
10968;DHT22;5536;49.602;10.980;2023-11-21T12:58:54;10.70;99.90
10968;DHT22;5536;49.602;10.980;2023-11-21T13:01:25;10.50;99.90
10968;DHT22;5536;49.602;10.980;2023-11-21T13:03:57;10.50;99.90
10968;DHT22;5536;49.602;10.980;2023-11-21T13:06:25;10.60;99.90
10968;DHT22;5536;49.602;10.980;2023-11-21T13:08:54;11.40;99.90
10968;DHT22;5536;49.602;10.980;2023-11-21T13:11:23;12.30;99.90
10968;DHT22;5536;49.602;10.980;2023-11-21T13:13:52;13.00;99.90
10968;DHT22;5536;49.602;10.980;2023-11-21T13:16:20;14.00;99.90
10968;DHT22;5536;49.602;10.980;2023-11-21T13:18:47;14.70;99.90
10968;DHT22;5536;49.602;10.980;2023-11-21T13:21:16;15.00;99.90
10968;DHT22;5536;49.602;10.980;2023-11-21T13:23:44;15.30;99.90
10968;DHT22;5536;49.602;10.980;2023-11-21T13:26:14;15.80;99.90
10968;DHT22;5536;49.602;10.980;2023-11-21T13:28:41;15.80;99.90
10968;DHT22;5536;49.602;10.980;2023-11-21T13:31:11;15.60;99.90
10968;DHT22;5536;49.602;10.980;2023-11-21T13:33:47;15.40;99.90
10968;DHT22;5536;49.602;10.980;2023-11-21T13:36:22;15.10;99.90
10968;DHT22;5536;49.602;10.980;2023-11-21T13:38:53;14.50;99.90
10968;DHT22;5536;49.602;10.980;2023-11-21T13:41:21;13.80;99.90
10968;DHT22;5536;49.602;10.980;2023-11-21T13:43:53;13.00;99.90
10968;DHT22;5536;49.602;10.980;2023-11-21T13:46:29;12.50;99.90
10968;DHT22;5536;49.602;10.980;2023-11-21T13:49:02;12.10;99.90
10968;DHT22;5536;49.602;10.980;2023-11-21T13:51:33;11.70;99.90
10968;DHT22;5536;49.602;10.980;2023-11-21T13:54:06;11.50;99.90
10968;DHT22;5536;49.602;10.980;2023-11-21T13:56:35;11.40;99.90
10968;DHT22;5536;49.602;10.980;2023-11-21T13:59:02;11.40;99.90
10968;DHT22;5536;49.602;10.980;2023-11-21T14:01:39;11.40;99.90
10968;DHT22;5536;49.602;10.980;2023-11-21T14:04:20;11.30;99.90
10968;DHT22;5536;49.602;10.980;2023-11-21T14:07:02;11.20;99.90
10968;DHT22;5536;49.602;10.980;2023-11-21T14:09:46;11.10;99.90
10968;DHT22;5536;49.602;10.980;2023-11-21T14:12:15;11.10;99.90
10968;DHT22;5536;49.602;10.980;2023-11-21T14:14:42;11.20;99.90
10968;DHT22;5536;49.602;10.980;2023-11-21T14:17:10;11.10;99.90
10968;DHT22;5536;49.602;10.980;2023-11-21T14:19:40;11.00;99.90
10968;DHT22;5536;49.602;10.980;2023-11-21T14:22:10;10.90;99.90
10968;DHT22;5536;49.602;10.980;2023-11-21T14:24:37;10.90;99.90
10968;DHT22;5536;49.602;10.980;2023-11-21T14:27:09;10.80;99.90
10968;DHT22;5536;49.602;10.980;2023-11-21T14:29:36;10.70;99.90
10968;DHT22;5536;49.602;10.980;2023-11-21T14:32:05;10.70;99.90
10968;DHT22;5536;49.602;10.980;2023-11-21T14:34:33;10.70;99.90
10968;DHT22;5536;49.602;10.980;2023-11-21T14:37:00;10.60;99.90
10968;DHT22;5536;49.602;10.980;2023-11-21T14:39:30;10.50;99.90
10968;DHT22;5536;49.602;10.980;2023-11-21T14:42:06;10.40;99.90
10968;DHT22;5536;49.602;10.980;2023-11-21T14:44:33;10.50;99.90
10968;DHT22;5536;49.602;10.980;2023-11-21T14:47:04;10.40;99.90
10968;DHT22;5536;49.602;10.980;2023-11-21T14:49:40;10.40;99.90
10968;DHT22;5536;49.602;10.980;2023-11-21T14:52:21;10.30;99.90
10968;DHT22;5536;49.602;10.980;2023-11-21T14:55:01;10.30;99.90
10968;DHT22;5536;49.602;10.980;2023-11-21T14:57:51;10.10;99.90
10968;DHT22;5536;49.602;10.980;2023-11-21T15:00:20;10.10;99.90
10968;DHT22;5536;49.602;10.980;2023-11-21T15:03:10;10.00;99.90
10968;DHT22;5536;49.602;10.980;2023-11-21T15:05:57;9.90;99.90
10968;DHT22;5536;49.602;10.980;2023-11-21T15:08:24;9.90;99.90
10968;DHT22;5536;49.602;10.980;2023-11-21T15:10:58;9.80;99.90
10968;DHT22;5536;49.602;10.980;2023-11-21T15:13:24;9.80;99.90
10968;DHT22;5536;49.602;10.980;2023-11-21T15:15:54;9.70;99.90
10968;DHT22;5536;49.602;10.980;2023-11-21T15:18:21;9.60;99.90
10968;DHT22;5536;49.602;10.980;2023-11-21T15:20:48;9.50;99.90
10968;DHT22;5536;49.602;10.980;2023-11-21T15:23:15;9.40;99.90
10968;DHT22;5536;49.602;10.980;2023-11-21T15:25:43;9.40;99.90
10968;DHT22;5536;49.602;10.980;2023-11-21T15:28:13;9.40;99.90
10968;DHT22;5536;49.602;10.980;2023-11-21T15:30:40;9.40;99.90
10968;DHT22;5536;49.602;10.980;2023-11-21T15:33:07;9.40;99.90
10968;DHT22;5536;49.602;10.980;2023-11-21T15:35:34;9.40;99.90
10968;DHT22;5536;49.602;10.980;2023-11-21T15:38:03;9.40;99.90
10968;DHT22;5536;49.602;10.980;2023-11-21T15:40:30;9.40;99.90
10968;DHT22;5536;49.602;10.980;2023-11-21T15:42:58;9.40;99.90
10968;DHT22;5536;49.602;10.980;2023-11-21T15:45:26;9.40;99.90
10968;DHT22;5536;49.602;10.980;2023-11-21T15:47:53;9.40;99.90
10968;DHT22;5536;49.602;10.980;2023-11-21T15:50:22;9.40;99.90
10968;DHT22;5536;49.602;10.980;2023-11-21T15:52:50;9.40;99.90
10968;DHT22;5536;49.602;10.980;2023-11-21T15:55:17;9.30;99.90
10968;DHT22;5536;49.602;10.980;2023-11-21T15:57:45;9.30;99.90
10968;DHT22;5536;49.602;10.980;2023-11-21T16:00:14;9.30;99.90
10968;DHT22;5536;49.602;10.980;2023-11-21T16:02:47;9.30;99.90
10968;DHT22;5536;49.602;10.980;2023-11-21T16:05:14;9.30;99.90
10968;DHT22;5536;49.602;10.980;2023-11-21T16:07:42;9.30;99.90
10968;DHT22;5536;49.602;10.980;2023-11-21T16:10:10;9.30;99.90